Time;durP1;ratioP1;P1;durP2;ratioP2;P2;SDS_P1;SDS_P2;PMS_P1;PMS_P2;Temp;Humidity;BMP_temperature;BMP_pressure;BME280_temperature;BME280_humidity;BME280_pressure;Samples;Min_cycle;Max_cycle;Signal;HPM_P1;HPM_P2
2023/03/14 00:00:00;;;;;;;;;;;;;;;-2.21;100.00;98935.16;5119058;27;19911;-68
2023/03/14 00:02:27;;;;;;;;;;;;;;;-2.21;100.00;98932.56;5139123;27;19925;-68
2023/03/14 00:04:56;;;;;;;;;;;;;;;-2.15;100.00;98938.22;5121810;27;19919;-67
2023/03/14 00:07:21;;;;;;;;;;;;;;;-2.19;100.00;98925.44;5137218;27;19911;-68
2023/03/14 00:09:46;;;;;;;;;;;;;;;-2.19;100.00;98917.63;5136771;27;19911;-68
2023/03/14 00:12:14;;;;;;;;;;;;;;;-2.17;100.00;98903.63;5139300;27;19918;-69
2023/03/14 00:14:39;;;;;;;;;;;;;;;-2.16;100.00;98894.84;5135474;27;20421;-68
2023/03/14 00:17:04;;;;;;;;;;;;;;;-2.14;100.00;98883.31;5135660;27;19951;-68
2023/03/14 00:19:30;;;;;;;;;;;;;;;-2.09;100.00;98886.38;5145167;27;19946;-69
2023/03/14 00:21:56;;;;;;;;;;;;;;;-2.06;100.00;98880.06;5147299;27;20296;-68
2023/03/14 00:24:22;;;;;;;;;;;;;;;-2.04;100.00;98865.94;5138272;27;19918;-70
2023/03/14 00:26:47;;;;;;;;;;;;;;;-2.03;100.00;98882.41;5119238;27;19934;-69
2023/03/14 00:29:15;;;;;;;;;;;;;;;-2.01;100.00;98863.09;5135512;27;19984;-69
2023/03/14 00:31:40;;;;;;;;;;;;;;;-1.99;100.00;98840.31;5135121;27;20287;-69
2023/03/14 00:34:05;;;;;;;;;;;;;;;-1.99;100.00;98844.72;5135418;27;19990;-67
2023/03/14 00:36:31;;;;;;;;;;;;;;;-1.99;100.00;98831.66;5135581;27;19912;-69
2023/03/14 00:38:56;;;;;;;;;;;;;;;-1.95;100.00;98827.84;5135169;27;19911;-68
2023/03/14 00:41:24;;;;;;;;;;;;;;;-1.90;100.00;98812.59;5135207;27;19911;-68
2023/03/14 00:43:49;;;;;;;;;;;;;;;-1.88;100.00;98800.25;5135238;27;19911;-67
2023/03/14 00:46:15;;;;;;;;;;;;;;;-1.84;100.00;98801.63;5135050;27;20010;-70
2023/03/14 00:48:40;;;;;;;;;;;;;;;-1.81;100.00;98790.94;5135183;27;19918;-69
2023/03/14 00:51:07;;;;;;;;;;;;;;;-1.83;100.00;98765.94;5147460;27;20281;-72
2023/03/14 00:53:37;;;;;;;;;;;;;;;-1.85;100.00;98789.56;5130428;27;19934;-69
2023/03/14 00:56:04;;;;;;;;;;;;;;;-1.86;100.00;98761.81;5131439;27;19911;-70
2023/03/14 00:58:29;;;;;;;;;;;;;;;-1.83;100.00;98781.59;5141998;27;19915;-69
2023/03/14 01:00:54;;;;;;;;;;;;;;;-1.84;100.00;98754.69;5139924;27;19911;-70
2023/03/14 01:03:20;;;;;;;;;;;;;;;-1.79;100.00;98752.47;5143164;27;19912;-69
2023/03/14 01:05:47;;;;;;;;;;;;;;;-1.74;100.00;98732.03;5149713;27;20001;-70
2023/03/14 01:08:13;;;;;;;;;;;;;;;-1.74;100.00;98747.69;5151539;27;19961;-71
2023/03/14 01:10:40;;;;;;;;;;;;;;;-1.76;100.00;98710.47;5131954;27;19911;-69
2023/03/14 01:13:05;;;;;;;;;;;;;;;-1.77;100.00;98681.91;5134458;27;19990;-70
2023/03/14 01:15:33;;;;;;;;;;;;;;;-1.82;100.00;98718.84;5137185;27;19911;-70
2023/03/14 01:18:02;;;;;;;;;;;;;;;-1.79;100.00;98694.25;5156588;27;19911;-71
2023/03/14 01:20:27;;;;;;;;;;;;;;;-1.77;100.00;98682.72;5131802;27;20380;-69
2023/03/14 01:22:56;;;;;;;;;;;;;;;-1.78;100.00;98683.69;5136183;27;19915;-70
2023/03/14 01:25:21;;;;;;;;;;;;;;;-1.77;100.00;98677.50;5147593;27;19932;-71
2023/03/14 01:27:47;;;;;;;;;;;;;;;-1.77;100.00;98664.47;5136730;27;19946;-68
2023/03/14 01:30:12;;;;;;;;;;;;;;;-1.72;100.00;98657.06;5136946;27;19916;-69
2023/03/14 01:32:38;;;;;;;;;;;;;;;-1.71;100.00;98656.09;5136722;27;20394;-69
2023/03/14 01:35:03;;;;;;;;;;;;;;;-1.66;100.00;98640.84;5135404;27;19915;-68
2023/03/14 01:37:29;;;;;;;;;;;;;;;-1.66;100.00;98646.06;5134052;27;19912;-69
2023/03/14 01:39:54;;;;;;;;;;;;;;;-1.63;100.00;98637.97;5133812;27;19964;-68
2023/03/14 01:42:19;;;;;;;;;;;;;;;-1.60;100.00;98623.81;5134154;27;19912;-67
2023/03/14 01:44:48;;;;;;;;;;;;;;;-1.60;100.00;98626.44;5134148;27;19911;-70
2023/03/14 01:47:14;;;;;;;;;;;;;;;-1.57;100.00;98621.75;5134090;27;20014;-70
2023/03/14 01:49:39;;;;;;;;;;;;;;;-1.54;100.00;98596.34;5133751;27;20018;-69
2023/03/14 01:52:13;;;;;;;;;;;;;;;-1.47;100.00;98589.59;5133763;27;19987;-69
2023/03/14 01:54:43;;;;;;;;;;;;;;;-1.49;100.00;98594.94;5133726;27;20328;-69
2023/03/14 01:57:11;;;;;;;;;;;;;;;-1.52;100.00;98587.41;5133996;27;19968;-69
2023/03/14 01:59:37;;;;;;;;;;;;;;;-1.47;100.00;98581.75;5133639;27;20255;-69
2023/03/14 02:02:05;;;;;;;;;;;;;;;-1.45;100.00;98577.22;5133710;27;19951;-69
2023/03/14 02:04:33;;;;;;;;;;;;;;;-1.43;100.00;98577.94;5133790;27;19912;-68
2023/03/14 02:07:16;;;;;;;;;;;;;;;-1.44;100.00;98564.06;5133485;27;19923;-68
2023/03/14 02:09:43;;;;;;;;;;;;;;;-1.41;100.00;98542.06;5133482;27;20367;-68
2023/03/14 02:12:09;;;;;;;;;;;;;;;-1.38;100.00;98550.44;5114941;27;19911;-68
2023/03/14 02:14:35;;;;;;;;;;;;;;;-1.36;100.00;98535.44;5133483;27;19923;-68
2023/03/14 02:17:02;;;;;;;;;;;;;;;-1.29;100.00;98530.47;5133471;27;19911;-68
2023/03/14 02:19:42;;;;;;;;;;;;;;;-1.23;100.00;98514.22;5133234;27;20274;-69
2023/03/14 02:22:10;;;;;;;;;;;;;;;-1.20;100.00;98521.78;5133420;27;20366;-69
2023/03/14 02:24:43;;;;;;;;;;;;;;;-1.16;100.00;98510.06;5133445;27;19911;-68
2023/03/14 02:27:13;;;;;;;;;;;;;;;-1.10;100.00;98501.69;5133507;27;19920;-69
2023/03/14 02:29:43;;;;;;;;;;;;;;;-1.09;100.00;98495.50;5134328;28;19922;-69
2023/03/14 02:32:08;;;;;;;;;;;;;;;-1.07;100.00;98488.34;5133365;28;19973;-69
2023/03/14 02:34:34;;;;;;;;;;;;;;;-1.03;100.00;98496.69;5133415;28;20366;-69
2023/03/14 02:37:00;;;;;;;;;;;;;;;-1.00;100.00;98476.31;5133747;28;19912;-68
2023/03/14 02:39:33;;;;;;;;;;;;;;;-0.97;100.00;98488.28;5134188;28;19911;-68
2023/03/14 02:41:58;;;;;;;;;;;;;;;-0.95;100.00;98473.28;5133353;28;19919;-69
2023/03/14 02:44:23;;;;;;;;;;;;;;;-0.91;100.00;98492.09;5133391;28;20233;-68
2023/03/14 02:46:49;;;;;;;;;;;;;;;-0.87;100.00;98496.88;5133143;28;19919;-69
2023/03/14 02:49:14;;;;;;;;;;;;;;;-0.85;100.00;98481.09;5133523;27;19911;-68
2023/03/14 02:51:41;;;;;;;;;;;;;;;-0.82;100.00;98475.56;5118536;27;20366;-69
2023/03/14 02:54:06;;;;;;;;;;;;;;;-0.80;100.00;98476.25;5137101;27;20496;-69
2023/03/14 02:56:31;;;;;;;;;;;;;;;-0.76;100.00;98469.75;5137333;27;19959;-69
2023/03/14 02:58:57;;;;;;;;;;;;;;;-0.75;100.00;98476.63;5137008;27;20009;-69
2023/03/14 03:01:23;;;;;;;;;;;;;;;-0.72;100.00;98468.47;5137052;27;19988;-69
2023/03/14 03:03:48;;;;;;;;;;;;;;;-0.69;100.00;98473.41;5136859;27;20260;-69
2023/03/14 03:06:13;;;;;;;;;;;;;;;-0.65;100.00;98472.13;5137224;27;19915;-69
2023/03/14 03:08:39;;;;;;;;;;;;;;;-0.60;100.00;98459.44;5136907;27;19960;-69
2023/03/14 03:11:04;;;;;;;;;;;;;;;-0.57;100.00;98458.34;5136980;27;19916;-68
2023/03/14 03:13:29;;;;;;;;;;;;;;;-0.56;100.00;98458.19;5136771;27;20270;-69
2023/03/14 03:15:55;;;;;;;;;;;;;;;-0.54;100.00;98432.72;5136631;27;20002;-69
2023/03/14 03:18:20;;;;;;;;;;;;;;;-0.50;100.00;98447.16;5136826;27;19974;-70
2023/03/14 03:20:45;;;;;;;;;;;;;;;-0.46;100.00;98434.59;5136851;27;19912;-69
2023/03/14 03:23:11;;;;;;;;;;;;;;;-0.43;100.00;98421.22;5118195;27;20316;-69
2023/03/14 03:25:37;;;;;;;;;;;;;;;-0.41;100.00;98440.19;5117974;27;19912;-68
2023/03/14 03:28:07;;;;;;;;;;;;;;;-0.34;100.00;98415.06;5136367;27;20367;-69
2023/03/14 03:30:33;;;;;;;;;;;;;;;-0.32;100.00;98421.78;5136512;27;19915;-69
2023/03/14 03:32:58;;;;;;;;;;;;;;;-0.28;100.00;98411.06;5136638;27;19955;-68
2023/03/14 03:35:23;;;;;;;;;;;;;;;-0.22;100.00;98402.59;5118266;27;19915;-70
2023/03/14 03:37:49;;;;;;;;;;;;;;;-0.21;100.00;98412.09;5136367;27;20267;-70
2023/03/14 03:40:14;;;;;;;;;;;;;;;-0.19;100.00;98404.91;5136567;27;19922;-69
2023/03/14 03:42:39;;;;;;;;;;;;;;;-0.14;100.00;98397.41;5118023;27;19915;-68
2023/03/14 03:45:05;;;;;;;;;;;;;;;-0.13;100.00;98399.88;5136248;27;19911;-70
2023/03/14 03:47:31;;;;;;;;;;;;;;;-0.08;100.00;98412.50;5136161;27;19918;-68
2023/03/14 03:49:56;;;;;;;;;;;;;;;-0.02;100.00;98401.41;5136501;27;19912;-69
2023/03/14 03:52:21;;;;;;;;;;;;;;;0.04;100.00;98411.28;5136302;27;20389;-69
2023/03/14 03:54:47;;;;;;;;;;;;;;;0.10;100.00;98405.44;5136067;27;20408;-70
2023/03/14 03:57:12;;;;;;;;;;;;;;;0.17;100.00;98416.94;5136054;27;19912;-69
2023/03/14 03:59:39;;;;;;;;;;;;;;;0.19;100.00;98404.50;5136345;27;19955;-69
2023/03/14 04:02:05;;;;;;;;;;;;;;;0.20;100.00;98393.06;5135496;27;19917;-69
2023/03/14 04:04:30;;;;;;;;;;;;;;;0.26;100.00;98392.44;5136315;27;19998;-69
2023/03/14 04:06:56;;;;;;;;;;;;;;;0.29;100.00;98394.78;5135531;27;20256;-69
2023/03/14 04:09:21;;;;;;;;;;;;;;;0.39;100.00;98393.84;5135706;27;20395;-69
2023/03/14 04:11:46;;;;;;;;;;;;;;;0.46;100.00;98394.84;5135793;27;19971;-69
2023/03/14 04:14:12;;;;;;;;;;;;;;;0.51;100.00;98397.81;5135550;27;19911;-69
2023/03/14 04:16:37;;;;;;;;;;;;;;;0.57;100.00;98391.94;5135802;27;19919;-70
2023/03/14 04:19:03;;;;;;;;;;;;;;;0.61;100.00;98361.84;5135775;27;19918;-70
2023/03/14 04:21:28;;;;;;;;;;;;;;;0.68;100.00;98370.72;5135591;27;19961;-70
2023/03/14 04:23:53;;;;;;;;;;;;;;;0.75;100.00;98382.19;5135321;27;20006;-72
2023/03/14 04:26:19;;;;;;;;;;;;;;;0.82;100.00;98370.09;5135361;27;19951;-70
2023/03/14 04:28:44;;;;;;;;;;;;;;;0.88;100.00;98351.16;5135674;27;20437;-69
2023/03/14 04:31:10;;;;;;;;;;;;;;;0.88;100.00;98364.25;5135439;27;20366;-69
2023/03/14 04:33:37;;;;;;;;;;;;;;;0.89;100.00;98355.41;5108704;27;19917;-70
2023/03/14 04:36:02;;;;;;;;;;;;;;;0.93;100.00;98348.84;5122374;27;20420;-70
2023/03/14 04:38:28;;;;;;;;;;;;;;;0.96;100.00;98354.75;5096333;28;19912;-73
2023/03/14 04:40:53;;;;;;;;;;;;;;;0.96;100.00;98349.50;5114732;28;19938;-74
2023/03/14 04:43:19;;;;;;;;;;;;;;;0.96;100.00;98349.50;5114297;28;20398;-75
2023/03/14 04:45:44;;;;;;;;;;;;;;;0.95;100.00;98359.19;5115076;28;20367;-72
2023/03/14 04:48:09;;;;;;;;;;;;;;;0.95;100.00;98347.88;5096429;28;19935;-73
2023/03/14 04:50:34;;;;;;;;;;;;;;;0.97;100.00;98366.88;5114849;28;19941;-73
2023/03/14 04:53:00;;;;;;;;;;;;;;;1.01;100.00;98357.72;5114363;28;20006;-73
2023/03/14 04:55:25;;;;;;;;;;;;;;;1.05;100.00;98348.53;5114359;28;19915;-71
2023/03/14 04:57:50;;;;;;;;;;;;;;;1.06;100.00;98342.31;5114697;28;19912;-72
2023/03/14 05:00:18;;;;;;;;;;;;;;;1.05;100.00;98332.81;5114844;28;19920;-69
2023/03/14 05:02:44;;;;;;;;;;;;;;;1.08;100.00;98337.72;5114404;28;19919;-69
2023/03/14 05:05:09;;;;;;;;;;;;;;;1.08;100.00;98333.31;5114352;28;20282;-69
2023/03/14 05:07:35;;;;;;;;;;;;;;;1.13;100.00;98324.94;5114175;28;19934;-69
2023/03/14 05:10:00;;;;;;;;;;;;;;;1.15;100.00;98333.47;5113784;28;19915;-68
2023/03/14 05:12:26;;;;;;;;;;;;;;;1.17;100.00;98334.16;5095170;28;19912;-72
2023/03/14 05:14:51;;;;;;;;;;;;;;;1.15;100.00;98323.00;5114134;28;19962;-73
2023/03/14 05:17:17;;;;;;;;;;;;;;;1.13;100.00;98328.41;5115335;28;20006;-74
2023/03/14 05:19:43;;;;;;;;;;;;;;;1.12;100.00;98328.56;5114280;28;19912;-77
2023/03/14 05:22:08;;;;;;;;;;;;;;;1.12;100.00;98323.31;5115306;28;19965;-77
2023/03/14 05:24:33;;;;;;;;;;;;;;;1.22;100.00;98326.63;5114272;28;19939;-73
2023/03/14 05:26:59;;;;;;;;;;;;;;;1.24;100.00;98332.53;5114040;28;20363;-73
2023/03/14 05:29:24;;;;;;;;;;;;;;;1.37;100.00;98321.53;5113689;28;19923;-75
2023/03/14 05:31:50;;;;;;;;;;;;;;;1.35;100.00;98324.31;5113503;28;19922;-71
2023/03/14 05:34:15;;;;;;;;;;;;;;;1.41;100.00;98315.78;5113785;28;19912;-71
2023/03/14 05:36:41;;;;;;;;;;;;;;;1.49;100.00;98320.25;5114315;27;19926;-69
2023/03/14 05:39:06;;;;;;;;;;;;;;;1.53;100.00;98316.31;5105026;27;19919;-74
2023/03/14 05:41:32;;;;;;;;;;;;;;;1.56;100.00;98308.09;5105673;27;20029;-73
2023/03/14 05:43:57;;;;;;;;;;;;;;;1.62;100.00;98314.47;5106558;27;20002;-72
2023/03/14 05:46:22;;;;;;;;;;;;;;;1.64;100.00;98307.28;5127368;27;19998;-73
2023/03/14 05:48:48;;;;;;;;;;;;;;;1.70;100.00;98317.09;5113868;27;19916;-68
2023/03/14 05:51:13;;;;;;;;;;;;;;;1.74;100.00;98318.44;5115644;27;19924;-70
2023/03/14 05:53:38;;;;;;;;;;;;;;;1.81;100.00;98314.16;5124162;27;20031;-69
2023/03/14 05:56:04;;;;;;;;;;;;;;;1.84;100.00;98316.44;5125575;27;20394;-69
2023/03/14 05:58:29;;;;;;;;;;;;;;;1.89;100.00;98318.56;5121709;27;19965;-68
2023/03/14 06:00:54;;;;;;;;;;;;;;;1.94;100.00;98319.69;5121767;27;19918;-67
2023/03/14 06:03:20;;;;;;;;;;;;;;;2.00;100.00;98313.75;5125100;27;20021;-69
2023/03/14 06:05:45;;;;;;;;;;;;;;;2.04;100.00;98330.84;5124939;27;19916;-73
2023/03/14 06:08:10;;;;;;;;;;;;;;;2.07;100.00;98320.00;5106193;27;19962;-69
2023/03/14 06:10:36;;;;;;;;;;;;;;;2.11;100.00;98318.66;5121782;27;20014;-70
2023/03/14 06:13:01;;;;;;;;;;;;;;;2.12;100.00;98312.44;5123233;27;20017;-68
2023/03/14 06:15:27;;;;;;;;;;;;;;;2.16;100.00;98315.53;5125022;27;19919;-68
2023/03/14 06:17:55;;;;;;;;;;;;;;;2.18;100.00;98311.75;5112828;28;19976;-68
2023/03/14 06:20:21;;;;;;;;;;;;;;;2.20;100.00;98308.13;5112816;28;19911;-70
2023/03/14 06:22:46;;;;;;;;;;;;;;;2.25;100.00;98303.19;5094577;28;19912;-69
2023/03/14 06:25:11;;;;;;;;;;;;;;;2.28;100.00;98315.97;5113723;28;20351;-68
2023/03/14 06:27:38;;;;;;;;;;;;;;;2.32;100.00;98312.88;5114096;28;20010;-69
2023/03/14 06:30:03;;;;;;;;;;;;;;;2.36;100.00;98305.47;5113011;28;19954;-68
2023/03/14 06:32:29;;;;;;;;;;;;;;;2.41;100.00;98303.13;5112760;28;19915;-68
2023/03/14 06:34:54;;;;;;;;;;;;;;;2.43;100.00;98301.16;5112641;28;19982;-69
2023/03/14 06:37:19;;;;;;;;;;;;;;;2.46;100.00;98304.25;5112491;28;19911;-69
2023/03/14 06:39:45;;;;;;;;;;;;;;;2.52;100.00;98309.81;5115225;28;19928;-69
2023/03/14 06:42:10;;;;;;;;;;;;;;;2.57;100.00;98315.38;5133297;28;19933;-69
2023/03/14 06:44:36;;;;;;;;;;;;;;;2.59;100.00;98308.94;5133216;28;19963;-69
2023/03/14 06:47:01;;;;;;;;;;;;;;;2.58;100.00;98307.31;5133192;28;19911;-69
2023/03/14 06:49:26;;;;;;;;;;;;;;;2.62;100.00;98313.06;5133038;28;19922;-69
2023/03/14 06:51:52;;;;;;;;;;;;;;;2.65;100.00;98328.50;5133108;28;19911;-71
2023/03/14 06:54:17;;;;;;;;;;;;;;;2.63;100.00;98333.91;5132865;28;19919;-69
2023/03/14 06:56:42;;;;;;;;;;;;;;;2.68;100.00;98323.72;5133067;28;19911;-69
2023/03/14 06:59:08;;;;;;;;;;;;;;;2.73;100.00;98315.31;5105998;28;19941;-70
2023/03/14 07:01:34;;;;;;;;;;;;;;;2.78;100.00;98324.31;5124466;28;19912;-68
2023/03/14 07:04:00;;;;;;;;;;;;;;;2.88;100.00;98341.66;5107720;28;20359;-70
2023/03/14 07:06:25;;;;;;;;;;;;;;;2.94;100.00;98336.56;5090030;28;20011;-69
2023/03/14 07:08:51;;;;;;;;;;;;;;;2.97;100.00;98348.53;5132282;28;19976;-67
2023/03/14 07:11:16;;;;;;;;;;;;;;;3.01;100.00;98355.06;5130338;28;21000;-69
2023/03/14 07:13:42;;;;;;;;;;;;;;;3.02;100.00;98352.28;5124792;28;19915;-71
2023/03/14 07:16:08;;;;;;;;;;;;;;;3.05;100.00;98345.84;5114740;28;19916;-70
2023/03/14 07:18:33;;;;;;;;;;;;;;;3.12;100.00;98352.03;5103612;28;19915;-70
2023/03/14 07:20:59;;;;;;;;;;;;;;;3.18;100.00;98347.91;5124535;28;19938;-68
2023/03/14 07:23:27;;;;;;;;;;;;;;;3.24;100.00;98353.31;5126083;28;19963;-68
2023/03/14 07:25:53;;;;;;;;;;;;;;;3.26;100.00;98361.84;5122053;28;19920;-69
2023/03/14 07:28:22;;;;;;;;;;;;;;;3.24;100.00;98361.19;5121676;28;19968;-67
2023/03/14 07:30:50;;;;;;;;;;;;;;;3.33;100.00;98365.41;5124418;28;20370;-67
2023/03/14 07:33:16;;;;;;;;;;;;;;;3.38;100.00;98370.94;5122210;28;19922;-66
2023/03/14 07:35:41;;;;;;;;;;;;;;;3.36;100.00;98365.03;5124638;27;19911;-69
2023/03/14 07:38:06;;;;;;;;;;;;;;;3.37;100.00;98371.94;5127641;27;19912;-68
2023/03/14 07:40:32;;;;;;;;;;;;;;;3.40;100.00;98376.03;5125187;27;19956;-66
2023/03/14 07:42:57;;;;;;;;;;;;;;;3.40;100.00;98382.09;5126000;27;19919;-69
2023/03/14 07:45:23;;;;;;;;;;;;;;;3.39;100.00;98377.84;5124232;27;19919;-67
2023/03/14 07:47:48;;;;;;;;;;;;;;;3.45;100.00;98373.69;5126718;27;20432;-67
2023/03/14 07:50:14;;;;;;;;;;;;;;;3.49;100.00;98368.91;5126815;27;20084;-68
2023/03/14 07:52:39;;;;;;;;;;;;;;;3.50;100.00;98381.09;5124628;27;20102;-67
2023/03/14 07:55:06;;;;;;;;;;;;;;;3.54;100.00;98385.00;5126791;27;19973;-65
2023/03/14 07:57:37;;;;;;;;;;;;;;;3.58;100.00;98367.84;5126840;27;19912;-69
2023/03/14 08:00:05;;;;;;;;;;;;;;;3.58;100.00;98379.19;5133673;27;19912;-68
2023/03/14 08:02:30;;;;;;;;;;;;;;;3.60;100.00;98384.28;5110499;27;19921;-68
2023/03/14 08:04:55;;;;;;;;;;;;;;;3.64;100.00;98389.00;5132385;27;19943;-67
2023/03/14 08:07:21;;;;;;;;;;;;;;;3.72;100.00;98393.38;5109130;28;19925;-68
2023/03/14 08:09:46;;;;;;;;;;;;;;;3.77;100.00;98383.19;5137711;27;20269;-67
2023/03/14 08:12:15;;;;;;;;;;;;;;;3.81;100.00;98381.81;5111175;27;19922;-69
2023/03/14 08:14:41;;;;;;;;;;;;;;;3.87;100.00;98388.19;5126489;27;20331;-65
2023/03/14 08:17:08;;;;;;;;;;;;;;;3.90;100.00;98396.53;5130753;27;19973;-68
2023/03/14 08:19:33;;;;;;;;;;;;;;;3.97;100.00;98394.00;5128545;27;19958;-69
2023/03/14 08:21:59;;;;;;;;;;;;;;;4.01;100.00;98393.47;5123885;27;20070;-69
2023/03/14 08:24:25;;;;;;;;;;;;;;;4.11;100.00;98387.16;5130878;27;19930;-68
2023/03/14 08:26:51;;;;;;;;;;;;;;;4.18;100.00;98388.06;5130626;27;19915;-67
2023/03/14 08:29:16;;;;;;;;;;;;;;;4.25;100.00;98394.25;5123929;27;20381;-66
2023/03/14 08:31:42;;;;;;;;;;;;;;;4.31;100.00;98386.44;5119954;27;19915;-67
2023/03/14 08:34:08;;;;;;;;;;;;;;;4.32;100.00;98384.63;5118740;27;20319;-69
2023/03/14 08:36:34;;;;;;;;;;;;;;;4.36;100.00;98393.81;5123158;27;19919;-67
2023/03/14 08:39:00;;;;;;;;;;;;;;;4.38;100.00;98391.81;5108034;28;19911;-70
2023/03/14 08:41:27;;;;;;;;;;;;;;;4.42;100.00;98406.28;5091197;28;20294;-68
2023/03/14 08:43:53;;;;;;;;;;;;;;;4.43;100.00;98402.63;5083270;28;19957;-67
2023/03/14 08:46:19;;;;;;;;;;;;;;;4.48;100.00;98408.19;5089393;27;19912;-66
2023/03/14 08:48:45;;;;;;;;;;;;;;;4.55;100.00;98413.53;5102607;27;19912;-67
2023/03/14 08:51:12;;;;;;;;;;;;;;;4.63;100.00;98430.09;5118891;27;19912;-68
2023/03/14 08:53:39;;;;;;;;;;;;;;;4.78;100.00;98414.25;5115942;27;19918;-67
2023/03/14 08:56:06;;;;;;;;;;;;;;;4.95;100.00;98401.72;5117559;27;19915;-67
2023/03/14 08:58:37;;;;;;;;;;;;;;;4.97;100.00;98413.72;5117500;27;20381;-71
2023/03/14 09:01:03;;;;;;;;;;;;;;;4.95;100.00;98428.91;5084041;27;19950;-67
2023/03/14 09:03:29;;;;;;;;;;;;;;;4.93;100.00;98422.19;5100459;27;19934;-66
2023/03/14 09:05:55;;;;;;;;;;;;;;;4.95;100.00;98433.38;5135569;27;20294;-68
2023/03/14 09:08:21;;;;;;;;;;;;;;;4.96;100.00;98433.19;5136252;27;20243;-69
2023/03/14 09:10:47;;;;;;;;;;;;;;;5.02;100.00;98436.91;5101454;27;19911;-65
2023/03/14 09:13:14;;;;;;;;;;;;;;;5.04;100.00;98434.91;5101388;28;20045;-69
2023/03/14 09:15:42;;;;;;;;;;;;;;;5.05;100.00;98446.25;5097546;28;20006;-70
2023/03/14 09:18:07;;;;;;;;;;;;;;;5.07;100.00;98447.72;5080547;28;19912;-68
2023/03/14 09:20:35;;;;;;;;;;;;;;;5.08;100.00;98454.63;5116438;27;20298;-66
2023/03/14 09:23:04;;;;;;;;;;;;;;;5.14;100.00;98445.97;5097595;28;19919;-67
2023/03/14 09:25:29;;;;;;;;;;;;;;;5.28;100.00;98463.63;5096701;28;19911;-65
2023/03/14 09:27:56;;;;;;;;;;;;;;;5.38;100.00;98465.94;5114479;28;19916;-71
2023/03/14 09:30:22;;;;;;;;;;;;;;;5.45;100.00;98458.91;5096236;28;20279;-68
2023/03/14 09:32:47;;;;;;;;;;;;;;;5.55;100.00;98461.28;5096998;28;19918;-67
2023/03/14 09:35:13;;;;;;;;;;;;;;;5.56;100.00;98470.84;5096061;28;19912;-68
2023/03/14 09:37:38;;;;;;;;;;;;;;;5.53;100.00;98465.94;5095187;28;20006;-65
2023/03/14 09:40:10;;;;;;;;;;;;;;;5.54;100.00;98462.28;5113236;28;20014;-67
2023/03/14 09:42:37;;;;;;;;;;;;;;;5.48;100.00;98476.22;5095613;28;19941;-68
2023/03/14 09:45:07;;;;;;;;;;;;;;;5.48;100.00;98478.84;5113201;28;19947;-67
2023/03/14 09:47:34;;;;;;;;;;;;;;;5.46;100.00;98475.56;5113149;28;20469;-68
2023/03/14 09:50:03;;;;;;;;;;;;;;;5.47;100.00;98485.13;5113599;28;19923;-70
2023/03/14 09:52:32;;;;;;;;;;;;;;;5.47;100.00;98488.59;5113863;28;20390;-68
2023/03/14 09:55:05;;;;;;;;;;;;;;;5.49;100.00;98491.03;5114316;28;19919;-69
2023/03/14 09:57:34;;;;;;;;;;;;;;;5.51;100.00;98499.63;5113946;28;19912;-67
2023/03/14 10:00:26;;;;;;;;;;;;;;;5.48;100.00;98495.50;5078217;28;19912;-67
2023/03/14 10:02:56;;;;;;;;;;;;;;;5.49;100.00;98486.63;5126289;27;20271;-69
2023/03/14 10:05:23;;;;;;;;;;;;;;;5.58;100.00;98501.31;5095906;28;20282;-71
2023/03/14 10:07:49;;;;;;;;;;;;;;;5.63;100.00;98507.88;5095869;28;19912;-67
2023/03/14 10:10:25;;;;;;;;;;;;;;;5.67;100.00;98509.94;5095608;28;19928;-66
2023/03/14 10:12:56;;;;;;;;;;;;;;;5.68;100.00;98513.41;5113954;28;19984;-67
2023/03/14 10:15:30;;;;;;;;;;;;;;;5.78;100.00;98511.28;5113556;28;19912;-65
2023/03/14 10:18:01;;;;;;;;;;;;;;;5.97;100.00;98512.53;5108945;27;19911;-69
2023/03/14 10:20:32;;;;;;;;;;;;;;;6.09;100.00;98513.69;5100827;28;19955;-68
2023/03/14 10:23:04;;;;;;;;;;;;;;;6.17;100.00;98519.66;5095270;28;19911;-68
2023/03/14 10:25:31;;;;;;;;;;;;;;;6.27;100.00;98506.13;5113600;28;20006;-68
2023/03/14 10:27:58;;;;;;;;;;;;;;;6.37;100.00;98516.38;5085367;28;19919;-67
2023/03/14 10:30:47;;;;;;;;;;;;;;;6.49;100.00;98510.38;5113878;28;19966;-69
2023/03/14 10:33:18;;;;;;;;;;;;;;;6.69;100.00;98512.38;5104746;28;19980;-68
2023/03/14 10:35:44;;;;;;;;;;;;;;;6.79;100.00;98508.38;5114470;28;20355;-68
2023/03/14 10:38:14;;;;;;;;;;;;;;;6.71;100.00;98518.28;5094967;28;19918;-69
2023/03/14 10:40:41;;;;;;;;;;;;;;;6.67;100.00;98517.03;5113046;28;19957;-69
2023/03/14 10:43:13;;;;;;;;;;;;;;;6.80;100.00;98520.59;5115384;28;20313;-71
2023/03/14 10:49:04;;;;;;;;;;;;;;;6.64;100.00;98522.69;5119300;28;19918;-68
2023/03/14 10:51:29;;;;;;;;;;;;;;;6.45;100.00;98526.81;5113176;28;19969;-66
2023/03/14 10:53:56;;;;;;;;;;;;;;;6.38;100.00;98528.59;5121281;28;20312;-68
2023/03/14 10:56:23;;;;;;;;;;;;;;;6.35;100.00;98526.31;5132643;28;20338;-68
2023/03/14 10:58:49;;;;;;;;;;;;;;;6.35;100.00;98529.75;5134485;28;19912;-70
2023/03/14 11:04:45;;;;;;;;;;;;;;;6.53;100.00;98548.66;5132454;28;20266;-77
2023/03/14 11:10:33;;;;;;;;;;;;;;;6.91;100.00;98536.91;5132901;27;19980;-74
2023/03/14 11:13:08;;;;;;;;;;;;;;;7.03;100.00;98549.44;5131164;27;19915;-70
2023/03/14 11:15:45;;;;;;;;;;;;;;;6.91;100.00;98543.03;5132918;27;19911;-69
2023/03/14 11:18:23;;;;;;;;;;;;;;;6.95;100.00;98544.31;5119428;27;19923;-70
2023/03/14 11:27:52;;;;;;;;;;;;;;;6.93;100.00;98556.88;5112828;28;19912;-75
2023/03/14 11:30:32;;;;;;;;;;;;;;;6.80;100.00;98565.56;5121707;27;20409;-71
2023/03/14 11:33:03;;;;;;;;;;;;;;;6.75;100.00;98559.22;5131584;27;20374;-70
2023/03/14 11:35:34;;;;;;;;;;;;;;;6.80;100.00;98564.75;5128500;27;19912;-70
2023/03/14 11:38:19;;;;;;;;;;;;;;;6.79;100.00;98566.56;5124576;27;20006;-72
2023/03/14 11:40:46;;;;;;;;;;;;;;;6.71;100.00;98565.91;5127934;27;20311;-69
2023/03/14 11:43:15;;;;;;;;;;;;;;;6.63;100.00;98589.81;5125156;27;19911;-70
2023/03/14 11:45:42;;;;;;;;;;;;;;;6.56;100.00;98586.31;5127254;27;19911;-69
2023/03/14 11:48:10;;;;;;;;;;;;;;;6.52;100.00;98588.50;5122153;27;19923;-70
2023/03/14 11:50:36;;;;;;;;;;;;;;;6.53;100.00;98590.97;5125455;27;20006;-69
2023/03/14 11:53:06;;;;;;;;;;;;;;;6.52;100.00;98599.91;5129608;27;19916;-69
2023/03/14 11:55:35;;;;;;;;;;;;;;;6.49;100.00;98602.94;5124590;27;19915;-70
2023/03/14 11:58:13;;;;;;;;;;;;;;;6.53;100.00;98603.38;5122773;27;19919;-66
2023/03/14 12:00:38;;;;;;;;;;;;;;;6.55;100.00;98592.59;5129787;27;19912;-68
2023/03/14 12:03:22;;;;;;;;;;;;;;;6.53;100.00;98608.66;5121963;27;19930;-72
2023/03/14 12:06:02;;;;;;;;;;;;;;;6.55;100.00;98608.47;5109556;28;20005;-72
2023/03/14 12:08:46;;;;;;;;;;;;;;;6.64;100.00;98612.59;5130793;27;19922;-67
2023/03/14 12:11:13;;;;;;;;;;;;;;;6.72;100.00;98609.84;5129564;27;19958;-70
2023/03/14 12:13:45;;;;;;;;;;;;;;;6.79;100.00;98616.00;5106501;27;20011;-68
2023/03/14 12:16:29;;;;;;;;;;;;;;;6.82;100.00;98605.88;5126190;27;19918;-69
2023/03/14 12:19:24;;;;;;;;;;;;;;;6.95;100.00;98615.75;5104430;27;19922;-69
2023/03/14 12:21:55;;;;;;;;;;;;;;;7.00;100.00;98620.47;5108164;27;20275;-69
2023/03/14 12:24:29;;;;;;;;;;;;;;;7.03;100.00;98607.66;5124641;27;19965;-75
2023/03/14 12:26:55;;;;;;;;;;;;;;;7.10;100.00;98611.19;5122804;27;20378;-71
2023/03/14 12:29:21;;;;;;;;;;;;;;;7.19;100.00;98626.91;5125927;27;20002;-70
2023/03/14 12:31:48;;;;;;;;;;;;;;;7.16;100.00;98614.88;5109118;28;20016;-73
2023/03/14 12:34:14;;;;;;;;;;;;;;;7.24;100.00;98621.88;5126489;27;20278;-72
2023/03/14 12:36:48;;;;;;;;;;;;;;;7.27;100.00;98629.44;5108953;27;19924;-69
2023/03/14 12:39:14;;;;;;;;;;;;;;;7.31;100.00;98615.59;5125398;27;19916;-69
2023/03/14 12:41:44;;;;;;;;;;;;;;;7.33;100.00;98628.66;5123756;27;19963;-71
2023/03/14 12:44:28;;;;;;;;;;;;;;;7.31;100.00;98625.38;5122190;27;19923;-69
2023/03/14 12:47:12;;;;;;;;;;;;;;;7.33;100.00;98639.25;5125577;27;20044;-72
2023/03/14 12:49:38;;;;;;;;;;;;;;;7.23;100.00;98644.03;5131256;27;19949;-71
2023/03/14 12:52:13;;;;;;;;;;;;;;;7.16;100.00;98646.63;5134181;27;20495;-71
2023/03/14 12:54:39;;;;;;;;;;;;;;;7.06;100.00;98652.28;5136015;27;19912;-69
2023/03/14 12:57:04;;;;;;;;;;;;;;;7.05;100.00;98657.75;5115573;27;20393;-69
2023/03/14 12:59:34;;;;;;;;;;;;;;;6.99;100.00;98659.34;5134701;27;20000;-69